Appleyard, Washington
Current Conditions -  °F | °C
As of 12:55 AM on Sunday 26 Oct 2014 (Local Time) from KEAT Reporting Station
Clear Clear  
Wind Chill: 54°   Ceiling: Unl
Heat Index: 54°   Visibility: 10mi
Dew Point: 32°   Wind: 14mph
Humidity: 43%   Direction: 250°WSW
Pressure: 29.64"   Gusts: 29mph
Location:  47.3635°N, 120.348°W
Report Text: KEAT 260755Z AUTO 25012G25KT 10SM CLR 12/00 A2964 RMK AO2 PK WND 27039/0703 RAE18B34E38 SLP035 P0000 T01220000 401610083
Loading
Personal Weather Stations






























Interactive Weather Map
Tropical Storm Tracking
New forecast layout! Learn more

10-Day Weather Forecast

Advertisements
Track Severe Weather on mobile